Time;durP1;ratioP1;P1;durP2;ratioP2;P2;SDS_P1;SDS_P2;PMS_P1;PMS_P2;Temp;Humidity;BMP_temperature;BMP_pressure;BME280_temperature;BME280_humidity;BME280_pressure;Samples;Min_cycle;Max_cycle;Signal;HPM_P1;HPM_P2
2022/07/20 04:01:14;;;;;;;6.67;6.27;;;20.10;99.90;;;;;;5665646;22;20825;-63
2022/07/20 04:03:41;;;;;;;5.83;5.33;;;20.20;99.90;;;;;;5007210;28;20480;-67
2022/07/20 04:06:08;;;;;;;6.17;5.87;;;20.20;99.90;;;;;;5005547;28;20457;-69
2022/07/20 04:08:34;;;;;;;6.83;6.33;;;20.30;99.90;;;;;;5010033;28;21191;-69
2022/07/20 04:11:01;;;;;;;6.53;6.20;;;20.30;99.90;;;;;;5008995;28;20634;-68
2022/07/20 04:13:28;;;;;;;6.10;5.60;;;20.30;99.90;;;;;;4987611;28;20521;-68
2022/07/20 04:15:54;;;;;;;6.53;6.13;;;20.40;99.90;;;;;;4991178;28;20545;-66
2022/07/20 04:18:22;;;;;;;6.40;6.10;;;20.40;99.90;;;;;;4988740;28;20480;-68
2022/07/20 04:20:49;;;;;;;6.20;5.90;;;20.40;99.90;;;;;;4990315;28;20484;-66
2022/07/20 04:23:16;;;;;;;6.50;6.10;;;20.60;99.90;;;;;;4988701;28;20474;-66
2022/07/20 04:25:43;;;;;;;7.33;6.87;;;20.60;99.90;;;;;;4990742;28;20525;-66
2022/07/20 04:28:09;;;;;;;7.63;6.90;;;20.60;99.90;;;;;;4990097;28;20473;-67
2022/07/20 04:30:36;;;;;;;6.43;6.03;;;20.80;99.90;;;;;;4986128;28;20510;-68
2022/07/20 04:33:03;;;;;;;6.33;5.83;;;20.80;99.90;;;;;;4986720;28;20941;-66
2022/07/20 04:35:31;;;;;;;6.67;6.10;;;21.10;99.90;;;;;;4988289;28;20476;-68
2022/07/20 04:37:57;;;;;;;6.40;5.90;;;21.50;99.90;;;;;;4989364;28;20476;-68
2022/07/20 04:40:24;;;;;;;6.60;6.10;;;22.20;99.90;;;;;;4988316;28;20465;-67
2022/07/20 04:42:51;;;;;;;6.80;6.40;;;22.80;99.90;;;;;;4989790;28;20474;-67
2022/07/20 04:45:17;;;;;;;6.90;6.43;;;23.30;99.90;;;;;;4989432;28;20470;-68
2022/07/20 04:47:44;;;;;;;6.70;6.30;;;23.80;99.90;;;;;;4989258;28;20964;-67
2022/07/20 04:50:12;;;;;;;6.73;6.33;;;24.30;99.90;;;;;;4989923;28;20483;-69
2022/07/20 04:52:40;;;;;;;6.60;6.20;;;24.60;99.90;;;;;;4988223;28;20574;-67
2022/07/20 04:55:07;;;;;;;6.77;6.33;;;25.10;99.90;;;;;;4988344;28;20522;-67
2022/07/20 04:57:34;;;;;;;6.33;5.77;;;25.50;99.90;;;;;;4974634;28;20472;-67
2022/07/20 05:00:01;;;;;;;6.43;6.13;;;25.90;99.90;;;;;;4990178;28;20541;-67
2022/07/20 05:02:28;;;;;;;6.10;5.57;;;26.40;99.40;;;;;;4988177;28;20495;-68
2022/07/20 05:04:55;;;;;;;6.13;5.73;;;26.80;96.90;;;;;;4989845;28;20517;-68
2022/07/20 05:07:21;;;;;;;6.70;6.30;;;27.00;96.90;;;;;;4985736;28;20475;-66
2022/07/20 05:09:49;;;;;;;5.53;5.33;;;27.20;95.80;;;;;;4989607;28;20483;-66
2022/07/20 05:12:16;;;;;;;6.60;6.30;;;27.10;94.40;;;;;;4989901;28;20563;-66
2022/07/20 05:14:42;;;;;;;7.23;6.20;;;27.40;94.00;;;;;;4989071;28;20469;-67
2022/07/20 05:17:10;;;;;;;6.23;5.83;;;27.40;93.50;;;;;;4984392;28;20468;-66
2022/07/20 05:19:37;;;;;;;6.20;5.80;;;27.40;92.90;;;;;;4991049;28;20534;-66
2022/07/20 05:22:04;;;;;;;7.00;6.37;;;27.90;92.70;;;;;;4989392;28;20514;-67
2022/07/20 05:24:30;;;;;;;6.33;5.93;;;28.00;92.50;;;;;;4989376;28;20478;-66
2022/07/20 05:26:58;;;;;;;6.70;5.97;;;28.30;92.50;;;;;;4991529;28;20528;-67
2022/07/20 05:29:25;;;;;;;6.50;6.20;;;28.40;91.30;;;;;;4990074;28;20622;-67
2022/07/20 05:31:52;;;;;;;5.80;5.60;;;28.40;90.50;;;;;;4991691;28;20490;-66
2022/07/20 05:34:18;;;;;;;6.13;5.73;;;28.50;90.00;;;;;;4990022;28;20619;-66
2022/07/20 05:36:45;;;;;;;6.87;6.27;;;28.50;90.00;;;;;;4992383;28;20474;-66
2022/07/20 05:39:12;;;;;;;7.10;6.63;;;28.40;90.30;;;;;;4985137;28;20527;-67
2022/07/20 05:41:38;;;;;;;6.53;6.10;;;28.40;90.00;;;;;;4991003;28;20569;-66
2022/07/20 05:44:07;;;;;;;6.67;6.20;;;28.30;90.60;;;;;;4990487;28;20473;-70
2022/07/20 05:46:34;;;;;;;6.00;5.77;;;28.30;91.00;;;;;;4991307;28;20809;-68
2022/07/20 05:49:00;;;;;;;6.40;6.00;;;28.40;90.70;;;;;;4992802;28;20624;-66
2022/07/20 05:51:27;;;;;;;5.90;5.70;;;28.30;90.80;;;;;;4991970;28;20551;-66
2022/07/20 05:53:53;;;;;;;7.20;6.67;;;28.30;90.30;;;;;;4990839;28;20959;-66
2022/07/20 05:56:20;;;;;;;7.07;6.63;;;27.90;90.20;;;;;;4989211;28;20467;-67
2022/07/20 05:58:47;;;;;;;7.93;6.97;;;27.60;90.10;;;;;;4993697;28;20499;-64
2022/07/20 06:01:15;;;;;;;6.80;6.35;;;27.30;89.90;;;;;;4987556;28;20519;-67
2022/07/20 06:03:41;;;;;;;6.87;6.47;;;27.40;90.80;;;;;;4991805;28;20212;-68
2022/07/20 06:06:08;;;;;;;6.77;6.20;;;27.80;90.00;;;;;;4988865;28;20475;-67
2022/07/20 06:08:36;;;;;;;6.33;5.97;;;28.30;90.60;;;;;;4992875;28;20540;-65
2022/07/20 06:11:03;;;;;;;7.13;6.43;;;28.90;89.10;;;;;;4993048;28;20600;-65
2022/07/20 06:13:30;;;;;;;6.03;5.60;;;29.50;87.80;;;;;;4992998;28;20535;-65
2022/07/20 06:15:56;;;;;;;6.70;6.30;;;30.10;84.50;;;;;;4988997;28;20473;-65
2022/07/20 06:18:24;;;;;;;6.37;5.97;;;30.50;82.00;;;;;;4992380;28;20489;-66
2022/07/20 06:20:51;;;;;;;6.37;5.80;;;30.50;80.90;;;;;;4991406;28;20485;-66
2022/07/20 06:23:17;;;;;;;6.40;6.10;;;30.40;81.10;;;;;;4992534;28;20476;-65
2022/07/20 06:25:44;;;;;;;6.00;5.80;;;30.40;80.00;;;;;;4993240;28;20516;-66
2022/07/20 06:28:11;;;;;;;5.50;5.30;;;30.50;79.80;;;;;;4993110;28;20458;-65
2022/07/20 06:30:37;;;;;;;5.87;5.63;;;31.20;81.10;;;;;;4992415;28;20882;-66
2022/07/20 06:33:04;;;;;;;6.10;5.80;;;31.70;77.70;;;;;;4992338;28;20979;-67
2022/07/20 06:35:32;;;;;;;5.70;5.30;;;31.60;75.60;;;;;;4993112;28;20473;-66
2022/07/20 06:37:59;;;;;;;6.03;5.70;;;32.00;75.30;;;;;;4990291;28;20475;-66
2022/07/20 06:40:26;;;;;;;6.00;5.57;;;32.10;74.80;;;;;;4991534;28;20489;-66
2022/07/20 06:42:52;;;;;;;6.50;5.80;;;32.40;73.10;;;;;;4990718;28;20506;-67
2022/07/20 06:45:19;;;;;;;6.27;5.93;;;32.80;73.10;;;;;;4992847;28;20461;-66
2022/07/20 06:47:47;;;;;;;6.70;6.40;;;33.10;71.30;;;;;;4989566;28;20500;-65
